Aviation Digital Data Service (ADDS)

Output produced by METARs form (2040 UTC 30 April 2016)
found at http://www.aviationweather.gov/adds/metars/
 
KMDT 301956Z 00000KT 10SM OVC041 14/07 A3017 RMK AO2 SLP218 T01440067
KMDT 301856Z 15004KT 10SM OVC045 15/07 A3018 RMK AO2 SLP221 T01500072
KMDT 301803Z 20003KT 10SM OVC046 15/07 A3020 RMK AO2 T01500072
KMDT 301756Z VRB03KT 10SM BKN025 OVC046 15/07 A3020 RMK AO2 SLP226 T01500072 10156 20078 55002
KMDT 301656Z VRB03KT 10SM BKN025 OVC046 14/07 A3020 RMK AO2 SLP226 T01440072
KMDT 301556Z 20004KT 10SM OVC025 13/07 A3020 RMK AO2 SLP226 T01280072
KMDT 301456Z 23003KT 9SM SCT020 OVC048 11/07 A3020 RMK AO2 SLP230 T01110067 58003
KMDT 301356Z 00000KT 10SM BKN015 BKN029 OVC048 11/06 A3021 RMK AO2 SLP232 T01060061
KMDT 301256Z VRB03KT 8SM OVC022 09/05 A3021 RMK AO2 SLP233 T00890050
KMDT 301156Z 06004KT 7SM OVC021 08/05 A3021 RMK AO2 SLP233 60001 70014 T00780050 10083 20072 51018
KMDT 301056Z 04003KT 6SM BR OVC017 07/06 A3019 RMK AO2 SLP226 T00720056
KMDT 300956Z 05004KT 6SM BR OVC018 07/06 A3018 RMK AO2 SLP222 T00720056
KMDT 300856Z 00000KT 7SM OVC016 08/06 A3016 RMK AO2 SLP214 60001 T00780061 53008
KMDT 300848Z 06003KT 7SM OVC016 08/06 A3016 RMK AO2 T00780061
KMDT 300831Z 06004KT 6SM BR SCT010 OVC013 08/06 A3016 RMK AO2 T00780061
KMDT 300756Z 07003KT 5SM BR OVC009 08/07 A3014 RMK AO2 RAE33 CIG 006V011 SLP209 P0000 T00780067
KMDT 300752Z 06003KT 5SM BR OVC009 08/06 A3014 RMK AO2 RAE33 CIG 007V011 P0000
KMDT 300738Z 06003KT 5SM BR OVC010 08/06 A3014 RMK AO2 RAE33 CIG 006V011 P0000 T00780061
KMDT 300656Z 05005KT 4SM -RA BR OVC006 08/07 A3013 RMK AO2 RAB33 CIG 005V008 SLP207 P0001 T00780067
KMDT 300643Z 07004KT 4SM -RA BR BKN006 OVC011 08/07 A3014 RMK AO2 RAB33 P0001 T00830067
KMDT 300634Z 09003KT 5SM -RA BR SCT006 OVC011 08/07 A3013 RMK AO2 RAB33 P0001 T00830067
KMDT 300624Z 09004KT 7SM OVC010 08/07 A3013 RMK AO2 P0001 T00830067
KMDT 300556Z 09005KT 4SM BR BKN007 OVC013 08/07 A3014 RMK AO2 CIG 006V010 SLP207 RAE18B39 P0000 60003 T00830067 10094 20083 50002
KMDT 300456Z 10004KT 3SM -RA BR OVC007 08/07 A3014 RMK AO2 DZE15RAB15 SLP208 P0000 T00830072 401000072
KMDT 300356Z 06003KT 3SM -DZ BR BKN005 OVC011 09/08 A3013 RMK AO2 CIG 004V009 SLP205 PCPN VRY LGT P0001 T00890078
KMDT 300354Z 07003KT 3SM -DZ BR BKN005 OVC011 09/07 A3013 RMK AO2 CIG 004V009 PCPN VRY LGT P0001
KMDT 300345Z 06004KT 2 1/2SM -DZ BR BKN006 BKN013 OVC018 09/08 A3013 RMK AO2 CIG 004V008 P0001 T00890078
KMDT 300326Z 13006KT 2SM -DZ BR SCT006 BKN013 OVC018 09/07 A3011 RMK AO2 P0001 T00890072
KMDT 300319Z 12005KT 1 3/4SM -DZ BR SCT006 OVC015 09/07 A3012 RMK AO2 P0001 T00890072
KMDT 300312Z 12003KT 1 3/4SM -DZ BR BKN006 OVC012 09/08 A3012 RMK AO2 CIG 004V008 P0000 T00890078
KMDT 300256Z 07004KT 1 3/4SM -DZ BR FEW006 OVC011 09/07 A3012 RMK AO2 SLP201 P0001 60002 T00890072 51005
KMDT 300253Z 07005KT 1 3/4SM -DZ BR FEW006 OVC011 09/08 A3012 RMK AO2 P0001
KMDT 300233Z 08005KT 1 3/4SM -DZ BR OVC010 09/08 A3012 RMK AO2 CIG 006V012 P0001 T00890078
KMDT 300156Z 08005KT 2SM -DZ BR OVC009 09/08 A3011 RMK AO2 CIG 004V010 SLP198 P0001 T00890078
KMDT 300056Z 05003KT 2 1/2SM -DZ BR OVC006 09/08 A3010 RMK AO2 CIG 004V009 SLP195 P0000 T00940078
KMDT 292356Z 12005KT 2SM -DZ BR OVC007 09/08 A3006 RMK AO2 CIG 004V010 SLP182 P0000 60000 T00940078 10100 20094 53008
KMDT 292256Z 10006KT 2SM -DZ BR OVC008 09/08 A3004 RMK AO2 CIG 005V011 SLP176 P0000 T00940078
KMDT 292254Z 09006KT 2SM -DZ BR OVC008 09/08 A3004 RMK AO2 CIG 005V011 P0000
KMDT 292156Z 13005KT 5SM -DZ BR OVC011 10/08 A3003 RMK AO2 SLP172 P0000 T01000078
KMDT 292056Z 12006KT 6SM -DZ BR OVC011 10/07 A3004 RMK AO2 DZB54 SLP173 P0000 60000 T01000072 56011
KMDT 291956Z 12006KT 6SM BR SCT008 OVC011 09/07 A3004 RMK AO2 SLP176 T00940072
KMDT 291945Z 12007KT 5SM BR BKN008 OVC012 09/07 A3004 RMK AO2 T00940072
KMDT 291856Z 14005KT 6SM BR OVC012 09/07 A3004 RMK AO2 PRESFR SLP174 T00940067
KMDT 291756Z 16003KT 9SM OVC014 09/06 A3007 RMK AO2 SLP185 60010 T00940061 10094 20072 55002
KMDT 291748Z 12006KT 9SM OVC014 09/06 A3007 RMK AO2 T00940061
KMDT 291656Z 12009KT 10SM OVC016 09/06 A3005 RMK AO2 SLP179 T00940061
KMDT 291644Z 13007KT 10SM OVC015 09/06 A3006 RMK AO2 T00890061
KMDT 291556Z 09008KT 6SM BR OVC013 08/06 A3007 RMK AO2 RAE21 SLP185 P0000 T00830061
KMDT 291534Z 11008KT 3SM OVC011 08/06 A3008 RMK AO2 SFC VIS 7 RAE21 P0000 T00830061
KMDT 291456Z 09008KT 3SM -RA BR BKN006 OVC013 08/06 A3008 RMK AO2 SFC VIS 3 SLP187 P0007 60010 T00780061 52004
KMDT 291444Z 09005KT 3SM -RA BR OVC006 08/06 A3008 RMK AO2 SFC VIS 4 CIG 006V009 P0005 T00780061
KMDT 291434Z 09006KT 2SM -RA BR OVC008 07/06 A3008 RMK AO2 TWR VIS 3 CIG 006V010 P0005 T00720056
KMDT 291356Z 10006KT 3SM +RA BR OVC008 07/06 A3008 RMK AO2 RAE01B50 CIG 007V011 SLP186 P0001 T00720056
KMDT 291256Z 10006KT 3SM -RA BR OVC008 07/06 A3007 RMK AO2 SFC VIS 3 DZE52RAB52 CIG 006V011 SLP183 P0002 T00720056
KMDT 291243Z 10007KT 2SM -DZ BR OVC008 07/06 A3007 RMK AO2 TWR VIS 3 CIG 005V011 P0001 T00720056
KMDT 291229Z 10007KT 2 1/2SM -DZ BR OVC010 07/06 A3007 RMK AO2 TWR VIS 3 CIG 005V011 P0000 T00720056
KMDT 291156Z 11006KT 1 1/2SM -DZ BR OVC007 07/06 A3007 RMK AO2 TWR VIS 3 CIG 005V012 SLP183 P0000 60000 70038 T00720056 10072 20072 51007
KMDT 291153Z 10006KT 1 3/4SM -DZ BR BKN007 OVC012 07/06 A3006 RMK AO2 TWR VIS 3 CIG 005V009 P0000
KMDT 291138Z 10005KT 2 1/2SM -DZ BR BKN007 OVC014 07/06 A3006 RMK AO2 TWR VIS 3 CIG 005V010 P0000 T00720056
KMDT 291126Z 10005KT 3SM -DZ BR BKN009 OVC013 07/06 A3006 RMK AO2 CIG 006V010 P0000 T00720056
KMDT 291056Z 08006KT 3SM -DZ BR OVC011 07/06 A3005 RMK AO2 SFC VIS 4 SLP179 P0000 T00720056
KMDT 291031Z 09006KT 4SM -DZ BR BKN008 OVC017 07/06 A3005 RMK AO2 CIG 006V013 P0000 T00720056
KMDT 291003Z 10006KT 7SM -DZ SCT008 OVC015 07/06 A3004 RMK AO2 P0000 T00720056
KMDT 290956Z 10005KT 3SM -DZ BR FEW006 BKN013 OVC017 07/06 A3004 RMK AO2 SLP175 P0000 T00720056
KMDT 290943Z 09006KT 3SM -DZ BR SCT006 BKN011 OVC017 07/06 A3003 RMK AO2 P0000 T00720056
KMDT 290856Z 09004KT 2 1/2SM -DZ BR OVC007 07/06 A3003 RMK AO2 SLP170 P0000 60000 T00720061 53004
KMDT 290845Z 10005KT 2 1/2SM -DZ BR OVC008 07/06 A3003 RMK AO2 CIG 005V010 P0000 T00720056